createdAt,value
2019-03-16T00:00:11.651Z,94130.63
2019-03-16T00:02:40.364Z,94128.89
2019-03-16T00:05:09.257Z,94130.66
2019-03-16T00:07:37.903Z,94118.70
2019-03-16T00:10:06.981Z,94123.49
2019-03-16T00:12:35.967Z,94123.98
2019-03-16T00:15:04.744Z,94129.46
2019-03-16T00:17:33.586Z,94138.16
2019-03-16T00:20:02.271Z,94145.31
2019-03-16T00:22:31.144Z,94129.77
2019-03-16T00:25:00.256Z,94146.66
2019-03-16T00:27:29.202Z,94144.56
2019-03-16T00:29:57.802Z,94156.08
2019-03-16T00:32:26.913Z,94141.25
2019-03-16T00:34:55.510Z,94150.22
2019-03-16T00:37:24.105Z,94148.64
2019-03-16T00:39:52.709Z,94160.22
2019-03-16T00:42:21.304Z,94152.28
2019-03-16T00:44:49.944Z,94155.59
2019-03-16T00:47:18.555Z,94155.09
2019-03-16T00:49:47.176Z,94157.60
2019-03-16T00:52:16.071Z,94151.62
2019-03-16T00:54:44.690Z,94140.67
2019-03-16T00:57:13.280Z,94161.50
2019-03-16T00:59:41.905Z,94168.55
2019-03-16T01:02:10.789Z,94175.20
2019-03-16T01:04:39.386Z,94178.71
2019-03-16T01:07:07.982Z,94170.78
2019-03-16T01:09:36.805Z,94158.78
2019-03-16T01:12:05.399Z,94175.02
2019-03-16T01:14:34.359Z,94178.75
2019-03-16T01:17:02.975Z,94163.05
2019-03-16T01:19:31.810Z,94154.25
2019-03-16T01:22:00.440Z,94168.74
2019-03-16T01:24:29.268Z,94165.29
2019-03-16T01:26:58.128Z,94162.64
2019-03-16T01:29:26.716Z,94154.72
2019-03-16T01:31:55.795Z,94166.89
2019-03-16T01:34:24.417Z,94170.61
2019-03-16T01:36:53.015Z,94176.07
2019-03-16T01:39:21.621Z,94179.23
2019-03-16T01:41:50.281Z,94174.55
2019-03-16T01:44:18.868Z,94171.50
2019-03-16T01:46:47.598Z,94159.93
2019-03-16T01:49:16.473Z,94154.90
2019-03-16T01:51:45.350Z,94171.48
2019-03-16T01:54:14.370Z,94163.17
2019-03-16T01:56:42.984Z,94171.25
2019-03-16T01:59:11.573Z,94160.45
2019-03-16T02:01:40.209Z,94164.34
2019-03-16T02:04:08.870Z,94155.06
2019-03-16T02:06:37.501Z,94159.32
2019-03-16T02:09:07.494Z,94165.00
2019-03-16T02:11:36.091Z,94168.08
2019-03-16T02:14:04.879Z,94165.70
2019-03-16T02:16:33.469Z,94159.84
2019-03-16T02:19:02.345Z,94160.42
2019-03-16T02:21:30.986Z,94154.45
2019-03-16T02:23:59.785Z,94164.33
2019-03-16T02:26:28.654Z,94158.62
2019-03-16T02:28:57.275Z,94145.78
2019-03-16T02:31:25.900Z,94158.60
2019-03-16T02:33:55.244Z,94152.41
2019-03-16T02:36:24.165Z,94145.33
2019-03-16T02:38:53.266Z,94149.57
2019-03-16T02:41:22.453Z,94149.69
2019-03-16T02:43:51.528Z,94146.48
2019-03-16T02:46:20.142Z,94115.20
2019-03-16T02:48:49.203Z,94151.84
2019-03-16T02:51:17.808Z,94154.21
2019-03-16T02:53:46.649Z,94134.14
2019-03-16T02:56:15.285Z,94134.01
2019-03-16T02:58:44.166Z,94139.49
2019-03-16T03:01:13.003Z,94132.58
2019-03-16T03:03:42.055Z,94130.64
2019-03-16T03:06:10.659Z,94128.91
2019-03-16T03:08:39.254Z,94130.39
2019-03-16T03:11:07.878Z,94134.04
2019-03-16T03:13:36.747Z,94127.04
2019-03-16T03:16:05.434Z,94134.88
2019-03-16T03:18:34.275Z,94145.56
2019-03-16T03:21:02.886Z,94142.53
2019-03-16T03:23:31.503Z,94131.67
2019-03-16T03:26:00.451Z,94143.15
2019-03-16T03:28:29.298Z,94136.20
2019-03-16T03:30:57.930Z,94139.05
2019-03-16T03:33:26.794Z,94150.94
2019-03-16T03:35:55.396Z,94143.99
2019-03-16T03:38:23.988Z,94146.48
2019-03-16T03:40:52.586Z,94142.50
2019-03-16T03:43:21.175Z,94144.92
2019-03-16T03:45:50.120Z,94145.50
2019-03-16T03:48:18.759Z,94161.47
2019-03-16T03:50:47.830Z,94166.91
2019-03-16T03:53:16.431Z,94163.77
2019-03-16T03:55:45.251Z,94157.48
2019-03-16T03:58:13.958Z,94173.43
2019-03-16T04:00:42.559Z,94166.92
2019-03-16T04:03:11.173Z,94159.59
2019-03-16T04:05:40.057Z,94178.25
2019-03-16T04:08:08.888Z,94168.35
2019-03-16T04:10:38.001Z,94170.04
2019-03-16T04:13:06.826Z,94171.45
2019-03-16T04:15:35.418Z,94180.63
2019-03-16T04:18:04.262Z,94176.48
2019-03-16T04:20:33.089Z,94185.23
2019-03-16T04:23:01.691Z,94183.29
2019-03-16T04:25:32.651Z,94198.44
2019-03-16T04:28:01.497Z,94194.33
2019-03-16T04:30:30.108Z,94197.23
2019-03-16T04:32:58.954Z,94194.67
2019-03-16T04:35:27.794Z,94189.23
2019-03-16T04:37:56.713Z,94197.88
2019-03-16T04:40:25.562Z,94209.53
2019-03-16T04:42:54.158Z,94208.85
2019-03-16T04:45:22.786Z,94205.19
2019-03-16T04:47:51.636Z,94207.91
2019-03-16T04:50:20.248Z,94201.69
2019-03-16T04:52:51.138Z,94207.70
2019-03-16T04:55:19.257Z,94212.66
2019-03-16T04:57:47.867Z,94208.68
2019-03-16T05:00:16.496Z,94203.75
2019-03-16T05:02:45.097Z,94205.08
2019-03-16T05:05:13.802Z,94207.92
2019-03-16T05:07:42.864Z,94219.93
2019-03-16T05:10:11.504Z,94218.06
2019-03-16T05:12:40.423Z,94219.15
2019-03-16T05:15:09.151Z,94210.50
2019-03-16T05:17:37.790Z,94219.39
2019-03-16T05:20:06.856Z,94215.30
2019-03-16T05:22:35.492Z,94209.41
2019-03-16T05:25:04.688Z,94207.64
2019-03-16T05:27:33.525Z,94209.43
2019-03-16T05:30:02.376Z,94205.98
2019-03-16T05:32:30.983Z,94210.36
2019-03-16T05:34:59.795Z,94209.87
2019-03-16T05:37:28.639Z,94210.30
2019-03-16T05:39:57.227Z,94219.12
2019-03-16T05:42:25.844Z,94218.30
2019-03-16T05:44:54.680Z,94210.41
2019-03-16T05:47:23.313Z,94203.56
2019-03-16T05:49:51.905Z,94219.33
2019-03-16T05:52:20.731Z,94208.30
2019-03-16T05:54:49.424Z,94215.63
2019-03-16T05:57:18.015Z,94208.86
2019-03-16T05:59:46.651Z,94214.41
2019-03-16T06:02:15.289Z,94216.47
2019-03-16T06:04:44.145Z,94218.06
2019-03-16T06:07:12.769Z,94215.81
2019-03-16T06:09:41.438Z,94215.00
2019-03-16T06:12:10.360Z,94207.25
2019-03-16T06:14:39.241Z,94216.09
2019-03-16T06:17:08.052Z,94219.05
2019-03-16T06:19:36.888Z,94218.59
2019-03-16T06:22:05.732Z,94215.01
2019-03-16T06:24:34.877Z,94215.69
2019-03-16T06:27:03.710Z,94219.59
2019-03-16T06:29:32.576Z,94208.87
2019-03-16T06:32:01.187Z,94207.47
2019-03-16T06:34:29.871Z,94201.23
2019-03-16T06:36:58.475Z,94205.89
2019-03-16T06:39:27.552Z,94194.96
2019-03-16T06:41:56.161Z,94197.61
2019-03-16T06:44:24.825Z,94195.71
2019-03-16T06:46:53.420Z,94194.45
2019-03-16T06:49:22.014Z,94188.55
2019-03-16T06:51:50.617Z,94194.45
2019-03-16T06:54:19.270Z,94191.78
2019-03-16T06:56:48.039Z,94194.59
2019-03-16T06:59:16.658Z,94197.35
2019-03-16T07:01:45.552Z,94196.89
2019-03-16T07:04:15.341Z,94196.70
2019-03-16T07:06:43.996Z,94196.64
2019-03-16T07:09:12.857Z,94197.92
2019-03-16T07:11:41.774Z,94192.15
2019-03-16T07:14:10.352Z,94194.08
2019-03-16T07:16:39.240Z,94191.00
2019-03-16T07:19:08.064Z,94188.75
2019-03-16T07:21:36.697Z,94197.31
2019-03-16T07:24:05.515Z,94192.00
2019-03-16T07:26:34.445Z,94187.39
2019-03-16T07:29:03.321Z,94188.64
2019-03-16T07:31:31.975Z,94183.77
2019-03-16T07:34:00.865Z,94176.05
2019-03-16T07:36:29.542Z,94179.20
2019-03-16T07:38:58.228Z,94170.34
2019-03-16T07:41:26.949Z,94164.77
2019-03-16T07:43:55.817Z,94160.00
2019-03-16T07:46:24.700Z,94152.09
2019-03-16T07:48:53.527Z,94142.88
2019-03-16T07:51:22.387Z,94142.88
2019-03-16T07:53:51.288Z,94143.96
2019-03-16T07:56:19.928Z,94141.13
2019-03-16T07:58:48.532Z,94152.50
2019-03-16T08:01:17.178Z,94137.25
2019-03-16T08:03:45.774Z,94143.08
2019-03-16T08:06:14.474Z,94138.52
2019-03-16T08:08:46.086Z,94143.83
2019-03-16T08:11:13.610Z,94136.69
2019-03-16T08:13:42.213Z,94141.87
2019-03-16T08:16:11.031Z,94131.39
2019-03-16T08:18:39.666Z,94142.88
2019-03-16T08:21:08.870Z,94147.44
2019-03-16T08:23:37.492Z,94150.02
2019-03-16T08:26:06.113Z,94145.90
2019-03-16T08:28:34.773Z,94140.59
2019-03-16T08:31:03.507Z,94138.22
2019-03-16T08:33:32.175Z,94144.50
2019-03-16T08:36:00.863Z,94150.27
2019-03-16T08:38:29.748Z,94154.15
2019-03-16T08:40:58.656Z,94154.15
2019-03-16T08:43:27.490Z,94158.52
2019-03-16T08:45:56.112Z,94158.52
2019-03-16T08:48:24.747Z,94167.64
2019-03-16T08:50:53.403Z,94165.13
2019-03-16T08:53:23.060Z,94162.83
2019-03-16T08:55:51.891Z,94162.83
2019-03-16T08:58:20.525Z,94154.78
2019-03-16T09:00:49.168Z,94152.73
2019-03-16T09:03:17.749Z,94146.51
2019-03-16T09:05:46.376Z,94146.70
2019-03-16T09:08:15.063Z,94146.70
2019-03-16T09:10:43.668Z,94139.66
2019-03-16T09:13:12.279Z,94142.61
2019-03-16T09:15:40.919Z,94126.74
2019-03-16T09:18:09.644Z,94126.74
2019-03-16T09:20:38.391Z,94128.04
2019-03-16T09:23:07.004Z,94128.04
2019-03-16T09:25:35.835Z,94121.77
2019-03-16T09:28:04.470Z,94117.36
2019-03-16T09:30:33.121Z,94101.02
2019-03-16T09:33:01.804Z,94107.20
2019-03-16T09:35:30.621Z,94107.20
2019-03-16T09:37:59.842Z,94103.76
2019-03-16T09:40:28.938Z,94103.76
2019-03-16T09:42:57.739Z,94095.21
2019-03-16T09:45:26.622Z,94090.05
2019-03-16T09:47:55.327Z,94090.05
2019-03-16T09:50:24.007Z,94108.77
2019-03-16T09:52:52.663Z,94103.00
2019-03-16T09:55:21.700Z,94103.00
2019-03-16T09:57:50.415Z,94101.73
2019-03-16T10:00:19.182Z,94101.73
2019-03-16T10:02:48.440Z,94147.05
2019-03-16T10:05:17.052Z,94091.72
2019-03-16T10:07:45.713Z,94106.42
2019-03-16T10:10:14.393Z,94110.86
2019-03-16T10:12:43.066Z,94110.48
2019-03-16T10:15:11.815Z,94111.90
2019-03-16T10:17:40.539Z,94110.35
2019-03-16T10:20:09.479Z,94103.84
2019-03-16T10:22:38.444Z,94121.45
2019-03-16T10:25:07.089Z,94121.45
2019-03-16T10:27:35.897Z,94107.20
2019-03-16T10:30:05.291Z,94112.73
2019-03-16T10:32:34.218Z,94117.59
2019-03-16T10:35:02.811Z,94113.53
2019-03-16T10:37:31.388Z,94108.23
2019-03-16T10:40:00.458Z,94112.45
2019-03-16T10:42:29.139Z,94100.86
2019-03-16T10:44:58.249Z,94097.78
2019-03-16T10:47:26.937Z,94107.44
2019-03-16T10:49:55.531Z,94107.44
2019-03-16T10:52:24.117Z,94100.77
2019-03-16T10:54:53.020Z,94091.55
2019-03-16T10:57:21.620Z,94091.55
2019-03-16T10:59:50.334Z,94096.58
2019-03-16T11:02:18.990Z,94093.28
2019-03-16T11:04:47.845Z,94084.98
2019-03-16T11:07:16.929Z,94090.88
2019-03-16T11:09:45.531Z,94090.88
2019-03-16T11:12:14.413Z,94091.11
2019-03-16T11:14:43.286Z,94091.11
2019-03-16T11:17:12.345Z,94079.33
2019-03-16T11:19:40.973Z,94071.49
2019-03-16T11:22:09.551Z,94070.44
2019-03-16T11:24:38.223Z,94070.44
2019-03-16T11:27:06.825Z,94051.33
2019-03-16T11:29:35.486Z,94070.66
2019-03-16T11:32:04.632Z,94066.91
2019-03-16T11:34:33.493Z,94067.77
2019-03-16T11:37:02.087Z,94067.77
2019-03-16T11:39:32.241Z,94073.82
2019-03-16T11:42:00.974Z,94050.55
2019-03-16T11:44:29.805Z,94051.17
2019-03-16T11:46:58.397Z,94061.17
2019-03-16T11:49:27.231Z,94061.17
2019-03-16T11:51:55.873Z,94064.77
2019-03-16T11:54:24.499Z,94061.92
2019-03-16T11:56:53.190Z,94042.38
2019-03-16T11:59:22.209Z,94042.38
2019-03-16T12:01:51.014Z,94047.39
2019-03-16T12:04:19.892Z,94044.06
2019-03-16T12:06:48.495Z,94058.99
2019-03-16T12:09:17.347Z,94059.35
2019-03-16T12:11:46.014Z,94067.62
2019-03-16T12:14:14.632Z,94063.64
2019-03-16T12:19:17.297Z,94061.26
2019-03-16T12:21:45.981Z,94067.00
2019-03-16T12:24:14.795Z,94068.30
2019-03-16T12:26:43.582Z,94066.05
2019-03-16T12:29:13.141Z,94063.86
2019-03-16T12:31:41.978Z,94050.96
2019-03-16T12:34:11.357Z,94047.76
2019-03-16T12:36:39.975Z,94063.25
2019-03-16T12:39:08.908Z,94079.86
2019-03-16T12:41:37.769Z,94069.97
2019-03-16T12:44:06.605Z,94075.97
2019-03-16T12:46:35.183Z,94077.73
2019-03-16T12:49:03.797Z,94064.48
2019-03-16T12:51:32.495Z,94053.88
2019-03-16T12:54:01.070Z,94063.52
2019-03-16T12:56:30.058Z,94058.80
2019-03-16T12:59:09.917Z,94065.05
2019-03-16T13:01:29.209Z,94054.32
2019-03-16T13:03:58.215Z,94051.49
2019-03-16T13:06:26.831Z,94040.66
2019-03-16T13:08:55.437Z,94036.96
2019-03-16T13:11:24.103Z,94052.47
2019-03-16T13:13:52.684Z,94026.01
2019-03-16T13:16:21.288Z,94029.52
2019-03-16T13:18:49.974Z,94015.30
2019-03-16T13:21:18.562Z,94025.59
2019-03-16T13:23:47.264Z,94019.21
2019-03-16T13:26:16.028Z,94030.27
2019-03-16T13:28:44.939Z,94030.27
2019-03-16T13:31:13.557Z,94026.53
2019-03-16T13:33:42.263Z,94020.92
2019-03-16T13:36:11.331Z,94024.11
2019-03-16T13:38:40.317Z,94010.10
2019-03-16T13:41:09.041Z,94011.88
2019-03-16T13:43:37.663Z,94011.88
2019-03-16T13:46:06.559Z,94022.12
2019-03-16T13:48:35.213Z,94004.47
2019-03-16T13:51:04.162Z,94004.47
2019-03-16T13:53:32.874Z,93991.36
2019-03-16T13:56:01.818Z,93991.36
2019-03-16T13:58:30.552Z,93989.19
2019-03-16T14:00:59.649Z,93989.19
2019-03-16T14:03:28.481Z,93986.70
2019-03-16T14:05:57.640Z,93977.80
2019-03-16T14:08:26.483Z,93963.32
2019-03-16T14:10:55.446Z,93963.32
2019-03-16T14:13:24.255Z,93970.94
2019-03-16T14:15:53.568Z,93963.70
2019-03-16T14:18:22.564Z,93963.70
2019-03-16T14:20:51.409Z,93971.30
2019-03-16T14:23:20.251Z,93978.78
2019-03-16T14:25:48.904Z,93972.37
2019-03-16T14:28:17.676Z,93979.83
2019-03-16T14:30:46.575Z,93976.20
2019-03-16T14:33:15.532Z,93978.01
2019-03-16T14:35:44.136Z,93978.01
2019-03-16T14:38:13.068Z,93977.11
2019-03-16T14:40:41.763Z,93976.77
2019-03-16T14:43:11.481Z,93976.77
2019-03-16T14:45:40.193Z,93963.77
2019-03-16T14:48:09.067Z,93966.27
2019-03-16T14:50:37.886Z,93955.88
2019-03-16T14:53:06.840Z,93959.47
2019-03-16T14:55:35.572Z,93959.47
2019-03-16T14:58:04.262Z,93956.36
2019-03-16T15:00:38.496Z,93944.48
2019-03-16T15:03:03.661Z,93949.72
2019-03-16T15:05:32.279Z,93957.67
2019-03-16T15:08:00.853Z,93948.76
2019-03-16T15:10:29.465Z,93948.76
2019-03-16T15:12:58.318Z,93953.72
2019-03-16T15:15:26.942Z,93953.89
2019-03-16T15:17:55.801Z,93953.89
2019-03-16T15:20:24.930Z,93948.11
2019-03-16T15:22:53.779Z,93948.11
2019-03-16T15:25:22.674Z,93945.22
2019-03-16T15:27:51.300Z,93951.48
2019-03-16T15:30:20.011Z,93933.58
2019-03-16T15:32:49.046Z,93933.58
2019-03-16T15:35:17.921Z,93937.34
2019-03-16T15:37:46.555Z,93931.34
2019-03-16T15:40:15.436Z,93930.16
2019-03-16T15:42:44.069Z,93930.16
2019-03-16T15:45:14.657Z,93938.12
2019-03-16T15:47:43.770Z,93938.12
2019-03-16T15:50:12.354Z,93936.84
2019-03-16T15:52:41.113Z,93919.14
2019-03-16T15:55:10.102Z,93918.31
2019-03-16T15:57:42.173Z,93917.77
2019-03-16T16:00:10.441Z,93913.88
2019-03-16T16:02:39.066Z,93913.88
2019-03-16T16:05:07.913Z,93919.45
2019-03-16T16:07:36.595Z,93919.45
2019-03-16T16:10:05.750Z,93913.83
2019-03-16T16:12:34.439Z,93908.53
2019-03-16T16:15:03.067Z,93899.19
2019-03-16T16:17:31.716Z,93899.19
2019-03-16T16:20:00.440Z,93909.80
2019-03-16T16:22:29.061Z,93907.73
2019-03-16T16:24:57.888Z,93899.41
2019-03-16T16:27:26.853Z,93896.70
2019-03-16T16:29:55.666Z,93877.53
2019-03-16T16:32:24.345Z,93883.77
2019-03-16T16:34:53.034Z,93883.77
2019-03-16T16:37:21.975Z,93880.31
2019-03-16T16:39:50.573Z,93879.31
2019-03-16T16:42:19.487Z,93879.31
2019-03-16T16:44:49.083Z,93892.55
2019-03-16T16:47:17.688Z,93875.03
2019-03-16T16:49:46.307Z,93870.68
2019-03-16T16:52:14.975Z,93867.54
2019-03-16T16:54:43.561Z,93867.54
2019-03-16T16:57:12.525Z,93861.69
2019-03-16T16:59:41.136Z,93861.69
2019-03-16T17:02:09.769Z,93868.89
2019-03-16T17:04:38.384Z,93864.75
2019-03-16T17:07:07.467Z,93872.02
2019-03-16T17:09:36.371Z,93869.33
2019-03-16T17:12:05.110Z,93879.34
2019-03-16T17:14:33.764Z,93875.38
2019-03-16T17:17:02.983Z,93869.86
2019-03-16T17:19:31.572Z,93864.95
2019-03-16T17:22:00.748Z,93869.27
2019-03-16T17:24:29.351Z,93870.47
2019-03-16T17:26:58.216Z,93871.63
2019-03-16T17:29:27.039Z,93872.16
2019-03-16T17:31:55.686Z,93864.48
2019-03-16T17:34:24.310Z,93864.48
2019-03-16T17:36:53.306Z,93875.77
2019-03-16T17:39:22.393Z,93870.27
2019-03-16T17:41:51.129Z,93866.55
2019-03-16T17:44:20.019Z,93866.25
2019-03-16T17:46:48.896Z,93871.34
2019-03-16T17:49:17.503Z,93859.69
2019-03-16T17:51:46.347Z,93863.70
2019-03-16T17:54:15.219Z,93856.70
2019-03-16T17:56:43.835Z,93856.70
2019-03-16T17:59:12.410Z,93870.76
2019-03-16T18:01:41.302Z,93867.11
2019-03-16T18:04:11.184Z,93853.62
2019-03-16T18:06:40.053Z,93850.55
2019-03-16T18:09:08.729Z,93849.27
2019-03-16T18:11:37.388Z,93856.70
2019-03-16T18:14:06.233Z,93858.01
2019-03-16T18:16:35.113Z,93854.32
2019-03-16T18:19:03.944Z,93856.47
2019-03-16T18:21:32.578Z,93844.31
2019-03-16T18:24:01.207Z,93850.02
2019-03-16T18:26:29.865Z,93854.35
2019-03-16T18:28:58.949Z,93855.58
2019-03-16T18:31:27.575Z,93851.56
2019-03-16T18:33:56.156Z,93852.08
2019-03-16T18:36:25.053Z,93853.77
2019-03-16T18:38:53.633Z,93841.13
2019-03-16T18:41:22.721Z,93839.98
2019-03-16T18:43:51.359Z,93837.34
2019-03-16T18:46:19.954Z,93843.32
2019-03-16T18:48:48.847Z,93834.97
2019-03-16T18:51:17.950Z,93840.09
2019-03-16T18:53:46.549Z,93836.77
2019-03-16T18:56:15.145Z,93832.81
2019-03-16T18:58:43.925Z,93824.27
2019-03-16T19:01:12.591Z,93820.28
2019-03-16T19:03:41.240Z,93826.79
2019-03-16T19:06:09.841Z,93826.66
2019-03-16T19:08:38.496Z,93819.03
2019-03-16T19:11:07.945Z,93820.84
2019-03-16T19:13:36.853Z,93827.09
2019-03-16T19:16:05.558Z,93822.16
2019-03-16T19:18:34.349Z,93822.16
2019-03-16T19:21:02.971Z,93823.67
2019-03-16T19:23:31.701Z,93819.99
2019-03-16T19:26:00.428Z,93814.46
2019-03-16T19:28:29.113Z,93812.48
2019-03-16T19:30:58.032Z,93815.33
2019-03-16T19:33:26.650Z,93812.63
2019-03-16T19:35:55.298Z,93817.83
2019-03-16T19:38:24.083Z,93810.98
2019-03-16T19:40:53.085Z,93810.65
2019-03-16T19:43:22.074Z,93798.94
2019-03-16T19:45:50.683Z,93804.36
2019-03-16T19:48:19.273Z,93804.83
2019-03-16T19:50:47.881Z,93790.97
2019-03-16T19:53:16.742Z,93790.97
2019-03-16T19:55:45.351Z,93796.98
2019-03-16T19:58:13.958Z,93798.78
2019-03-16T20:00:42.567Z,93784.48
2019-03-16T20:03:11.449Z,93782.86
2019-03-16T20:05:40.305Z,93785.20
2019-03-16T20:08:09.157Z,93773.17
2019-03-16T20:10:38.914Z,93775.02
2019-03-16T20:13:07.528Z,93782.52
2019-03-16T20:15:36.128Z,93780.85
2019-03-16T20:18:04.816Z,93778.47
2019-03-16T20:20:33.712Z,93776.23
2019-03-16T20:23:02.403Z,93772.52
2019-03-16T20:25:30.996Z,93774.41
2019-03-16T20:27:59.580Z,93784.64
2019-03-16T20:30:28.458Z,93774.48
2019-03-16T20:33:03.718Z,93781.53
2019-03-16T20:35:27.899Z,93774.03
2019-03-16T20:37:56.489Z,93775.86
2019-03-16T20:40:25.089Z,93763.47
2019-03-16T20:42:53.916Z,93764.16
2019-03-16T20:45:22.788Z,93764.86
2019-03-16T20:47:51.458Z,93760.02
2019-03-16T20:50:20.223Z,93762.67
2019-03-16T20:52:48.924Z,93754.83
2019-03-16T20:55:17.588Z,93756.02
2019-03-16T20:57:46.187Z,93754.50
2019-03-16T21:00:15.771Z,93744.58
2019-03-16T21:02:44.390Z,93743.11
2019-03-16T21:05:13.064Z,93738.48
2019-03-16T21:07:41.663Z,93729.12
2019-03-16T21:10:10.373Z,93738.36
2019-03-16T21:12:39.506Z,93724.52
2019-03-16T21:15:09.006Z,93736.03
2019-03-16T21:17:38.300Z,93736.03
2019-03-16T21:20:09.309Z,93718.05
2019-03-16T21:22:39.089Z,93721.29
2019-03-16T21:25:08.537Z,93730.89
2019-03-16T21:27:37.245Z,93731.28
2019-03-16T21:30:07.122Z,93712.98
2019-03-16T21:32:35.953Z,93709.47
2019-03-16T21:35:05.024Z,93720.14
2019-03-16T21:37:33.892Z,93728.63
2019-03-16T21:40:02.514Z,93722.61
2019-03-16T21:42:31.363Z,93723.41
2019-03-16T21:45:00.395Z,93715.83
2019-03-16T21:47:29.027Z,93709.34
2019-03-16T21:49:57.652Z,93704.02
2019-03-16T21:52:26.340Z,93717.54
2019-03-16T21:54:54.999Z,93698.98
2019-03-16T21:57:23.666Z,93694.11
2019-03-16T21:59:52.600Z,93698.84
2019-03-16T22:02:21.287Z,93685.23
2019-03-16T22:04:49.908Z,93689.11
2019-03-16T22:07:18.563Z,93687.96
2019-03-16T22:09:47.427Z,93684.65
2019-03-16T22:12:16.103Z,93691.28
2019-03-16T22:14:44.706Z,93687.84
2019-03-16T22:17:13.306Z,93679.06
2019-03-16T22:19:42.280Z,93682.64
2019-03-16T22:22:10.882Z,93677.59
2019-03-16T22:24:39.485Z,93684.78
2019-03-16T22:27:08.367Z,93671.74
2019-03-16T22:29:37.217Z,93667.03
2019-03-16T22:32:06.122Z,93663.62
2019-03-16T22:34:34.742Z,93657.05
2019-03-16T22:37:03.336Z,93645.22
2019-03-16T22:39:32.945Z,93650.14
2019-03-16T22:42:01.554Z,93630.90
2019-03-16T22:44:30.186Z,93639.44
2019-03-16T22:46:58.788Z,93639.94
2019-03-16T22:49:27.393Z,93631.11
2019-03-16T22:51:55.982Z,93629.28
2019-03-16T22:54:24.623Z,93621.44
2019-03-16T22:56:53.296Z,93627.41
2019-03-16T22:59:21.956Z,93634.10
2019-03-16T23:01:50.574Z,93630.67
2019-03-16T23:04:19.174Z,93617.74
2019-03-16T23:06:47.848Z,93634.30
2019-03-16T23:09:16.525Z,93624.77
2019-03-16T23:11:45.656Z,93621.91
2019-03-16T23:14:14.495Z,93615.95
2019-03-16T23:16:43.080Z,93603.81
2019-03-16T23:19:11.757Z,93612.19
2019-03-16T23:21:40.348Z,93612.19
2019-03-16T23:24:08.981Z,93616.59
2019-03-16T23:26:38.939Z,93601.75
2019-03-16T23:29:07.892Z,93601.75
2019-03-16T23:31:36.478Z,93605.33
2019-03-16T23:34:05.222Z,93603.59
2019-03-16T23:36:33.805Z,93596.42
2019-03-16T23:39:02.483Z,93599.73
2019-03-16T23:41:31.084Z,93607.79
2019-03-16T23:43:59.700Z,93596.19
2019-03-16T23:46:28.542Z,93590.54
2019-03-16T23:48:57.377Z,93597.80
2019-03-16T23:51:25.984Z,93597.80
2019-03-16T23:53:54.852Z,93587.31
2019-03-16T23:56:23.861Z,93587.31
2019-03-16T23:58:52.458Z,93581.67
